Aviation Digital Data Service (ADDS)

Output produced by METARs form (0607 UTC 19 March 2019)
found at http://www.aviationweather.gov/metar/data/
 
METAR text: KPIT 190551Z 00000KT 10SM BKN070 00/M06 A3038 RMK AO2 SLP304 T00001056 10022 21006 51003
Conditions at: KPIT (PITTSBURGH , PA, US) observed 0551 UTC 19 March 2019
Temperature: 0.0°C (32°F)
Dewpoint: -5.6°C (22°F) [RH = 66%]
Pressure (altimeter): 30.38 inches Hg (1028.9 mb)
[Sea-level pressure: 1030.4 mb]
Winds: calm
Visibility: 10 or more miles (16+ km)
Ceiling: 7000 feet AGL
Clouds: broken clouds at 7000 feet AGL
Weather: no significant weather observed at this time

METAR text: KPIT 190451Z 00000KT 10SM OVC070 00/M05 A3038 RMK AO2 SLP305 T00001050 400501022
Conditions at: KPIT (PITTSBURGH , PA, US) observed 0451 UTC 19 March 2019
Temperature: 0.0°C (32°F)
Dewpoint: -5.0°C (23°F) [RH = 69%]
Pressure (altimeter): 30.38 inches Hg (1028.9 mb)
[Sea-level pressure: 1030.5 mb]
Winds: calm
Visibility: 10 or more miles (16+ km)
Ceiling: 7000 feet AGL
Clouds: overcast cloud deck at 7000 feet AGL
Weather: no significant weather observed at this time

METAR text: KPIT 190351Z 00000KT 10SM FEW055 OVC070 01/M06 A3037 RMK AO2 SLP304 T00061056
Conditions at: KPIT (PITTSBURGH , PA, US) observed 0351 UTC 19 March 2019
Temperature: 0.6°C (33°F)
Dewpoint: -5.6°C (22°F) [RH = 63%]
Pressure (altimeter): 30.37 inches Hg (1028.5 mb)
[Sea-level pressure: 1030.4 mb]
Winds: calm
Visibility: 10 or more miles (16+ km)
Ceiling: 7000 feet AGL
Clouds: few clouds at 5500 feet AGL
overcast cloud deck at 7000 feet AGL
Weather: no significant weather observed at this time

METAR text: KPIT 190251Z 01004KT 10SM OVC070 01/M06 A3036 RMK AO2 SLP302 T00111061 51014
Conditions at: KPIT (PITTSBURGH , PA, US) observed 0251 UTC 19 March 2019
Temperature: 1.1°C (34°F)
Dewpoint: -6.1°C (21°F) [RH = 59%]
Pressure (altimeter): 30.36 inches Hg (1028.2 mb)
[Sea-level pressure: 1030.2 mb]
Winds: from the N (10 degrees) at 5 MPH (4 knots; 2.1 m/s)
Visibility: 10 or more miles (16+ km)
Ceiling: 7000 feet AGL
Clouds: overcast cloud deck at 7000 feet AGL
Weather: no significant weather observed at this time

METAR text: KPIT 190151Z 36006KT 10SM BKN070 01/M06 A3035 RMK AO2 SLP298 T00111061
Conditions at: KPIT (PITTSBURGH , PA, US) observed 0151 UTC 19 March 2019
Temperature: 1.1°C (34°F)
Dewpoint: -6.1°C (21°F) [RH = 59%]
Pressure (altimeter): 30.35 inches Hg (1027.9 mb)
[Sea-level pressure: 1029.8 mb]
Winds: from the N (360 degrees) at 7 MPH (6 knots; 3.1 m/s)
Visibility: 10 or more miles (16+ km)
Ceiling: 7000 feet AGL
Clouds: broken clouds at 7000 feet AGL
Weather: no significant weather observed at this time

METAR text: KPIT 190051Z 31004KT 10SM BKN075 02/M06 A3034 RMK AO2 SLP293 T00171061
Conditions at: KPIT (PITTSBURGH , PA, US) observed 0051 UTC 19 March 2019
Temperature: 1.7°C (35°F)
Dewpoint: -6.1°C (21°F) [RH = 56%]
Pressure (altimeter): 30.34 inches Hg (1027.5 mb)
[Sea-level pressure: 1029.3 mb]
Winds: from the NW (310 degrees) at 5 MPH (4 knots; 2.1 m/s)
Visibility: 10 or more miles (16+ km)
Ceiling: 7500 feet AGL
Clouds: broken clouds at 7500 feet AGL
Weather: no significant weather observed at this time

METAR text: KPIT 182351Z 32009KT 10SM FEW055 OVC075 02/M06 A3032 RMK AO2 SLP288 BINOVC T00221056 10050 20022 53012
Conditions at: KPIT (PITTSBURGH , PA, US) observed 2351 UTC 18 March 2019
Temperature: 2.2°C (36°F)
Dewpoint: -5.6°C (22°F) [RH = 56%]
Pressure (altimeter): 30.32 inches Hg (1026.8 mb)
[Sea-level pressure: 1028.8 mb]
Winds: from the NW (320 degrees) at 10 MPH (9 knots; 4.6 m/s)
Visibility: 10 or more miles (16+ km)
Ceiling: 7500 feet AGL
Clouds: few clouds at 5500 feet AGL
overcast cloud deck at 7500 feet AGL
Weather: no significant weather observed at this time

METAR text: KPIT 182251Z 32007KT 10SM FEW055 OVC075 03/M07 A3031 RMK AO2 SLP283 T00281067
Conditions at: KPIT (PITTSBURGH , PA, US) observed 2251 UTC 18 March 2019
Temperature: 2.8°C (37°F)
Dewpoint: -6.7°C (20°F) [RH = 50%]
Pressure (altimeter): 30.31 inches Hg (1026.5 mb)
[Sea-level pressure: 1028.3 mb]
Winds: from the NW (320 degrees) at 8 MPH (7 knots; 3.6 m/s)
Visibility: 10 or more miles (16+ km)
Ceiling: 7500 feet AGL
Clouds: few clouds at 5500 feet AGL
overcast cloud deck at 7500 feet AGL
Weather: no significant weather observed at this time

METAR text: KPIT 182151Z 32012KT 10SM SCT050 OVC075 04/M07 A3030 RMK AO2 SLP278 BINOVC T00391072
Conditions at: KPIT (PITTSBURGH , PA, US) observed 2151 UTC 18 March 2019
Temperature: 3.9°C (39°F)
Dewpoint: -7.2°C (19°F) [RH = 44%]
Pressure (altimeter): 30.30 inches Hg (1026.2 mb)
[Sea-level pressure: 1027.8 mb]
Winds: from the NW (320 degrees) at 14 MPH (12 knots; 6.2 m/s)
Visibility: 10 or more miles (16+ km)
Ceiling: 7500 feet AGL
Clouds: scattered clouds at 5000 feet AGL
overcast cloud deck at 7500 feet AGL
Weather: no significant weather observed at this time

METAR text: KPIT 182051Z 31012G16KT 10SM FEW050 SCT060 BKN075 04/M07 A3029 RMK AO2 SLP275 T00391072 55001
Conditions at: KPIT (PITTSBURGH , PA, US) observed 2051 UTC 18 March 2019
Temperature: 3.9°C (39°F)
Dewpoint: -7.2°C (19°F) [RH = 44%]
Pressure (altimeter): 30.29 inches Hg (1025.8 mb)
[Sea-level pressure: 1027.5 mb]
Winds: from the NW (310 degrees) at 14 MPH (12 knots; 6.2 m/s)
gusting to 18 MPH (16 knots; 8.2 m/s)
Visibility: 10 or more miles (16+ km)
Ceiling: 7500 feet AGL
Clouds: few clouds at 5000 feet AGL
scattered clouds at 6000 feet AGL
broken clouds at 7500 feet AGL
Weather: no significant weather observed at this time

METAR text: KPIT 181951Z 32011KT 10SM BKN060 OVC075 04/M08 A3028 RMK AO2 SLP272 T00391078
Conditions at: KPIT (PITTSBURGH , PA, US) observed 1951 UTC 18 March 2019
Temperature: 3.9°C (39°F)
Dewpoint: -7.8°C (18°F) [RH = 42%]
Pressure (altimeter): 30.28 inches Hg (1025.5 mb)
[Sea-level pressure: 1027.2 mb]
Winds: from the NW (320 degrees) at 13 MPH (11 knots; 5.7 m/s)
Visibility: 10 or more miles (16+ km)
Ceiling: 6000 feet AGL
Clouds: broken clouds at 6000 feet AGL
overcast cloud deck at 7500 feet AGL
Weather: no significant weather observed at this time

METAR text: KPIT 181851Z 27011KT 10SM BKN055 OVC070 03/M08 A3029 RMK AO2 SLP275 T00331083
Conditions at: KPIT (PITTSBURGH , PA, US) observed 1851 UTC 18 March 2019
Temperature: 3.3°C (38°F)
Dewpoint: -8.3°C (17°F) [RH = 42%]
Pressure (altimeter): 30.29 inches Hg (1025.8 mb)
[Sea-level pressure: 1027.5 mb]
Winds: from the W (270 degrees) at 13 MPH (11 knots; 5.7 m/s)
Visibility: 10 or more miles (16+ km)
Ceiling: 5500 feet AGL
Clouds: broken clouds at 5500 feet AGL
overcast cloud deck at 7000 feet AGL
Weather: no significant weather observed at this time

METAR text: KPIT 181751Z 32007KT 10SM OVC055 04/M10 A3029 RMK AO2 SLP275 T00391100 10039 21011 55000
Conditions at: KPIT (PITTSBURGH , PA, US) observed 1751 UTC 18 March 2019
Temperature: 3.9°C (39°F)
Dewpoint: -10.0°C (14°F) [RH = 35%]
Pressure (altimeter): 30.29 inches Hg (1025.8 mb)
[Sea-level pressure: 1027.5 mb]
Winds: from the NW (320 degrees) at 8 MPH (7 knots; 3.6 m/s)
Visibility: 10 or more miles (16+ km)
Ceiling: 5500 feet AGL
Clouds: overcast cloud deck at 5500 feet AGL
Weather: no significant weather observed at this time

METAR text: KPIT 181651Z 33003KT 10SM BKN055 03/M11 A3029 RMK AO2 SLP275 T00331106
Conditions at: KPIT (PITTSBURGH , PA, US) observed 1651 UTC 18 March 2019
Temperature: 3.3°C (38°F)
Dewpoint: -10.6°C (13°F) [RH = 35%]
Pressure (altimeter): 30.29 inches Hg (1025.8 mb)
[Sea-level pressure: 1027.5 mb]
Winds: from the NNW (330 degrees) at 3 MPH (3 knots; 1.5 m/s)
Visibility: 10 or more miles (16+ km)
Ceiling: 5500 feet AGL
Clouds: broken clouds at 5500 feet AGL
Weather: no significant weather observed at this time

METAR text: KPIT 181551Z 35004KT 10SM FEW050 03/M10 A3029 RMK AO2 SLP275 T00281100
Conditions at: KPIT (PITTSBURGH , PA, US) observed 1551 UTC 18 March 2019
Temperature: 2.8°C (37°F)
Dewpoint: -10.0°C (14°F) [RH = 38%]
Pressure (altimeter): 30.29 inches Hg (1025.8 mb)
[Sea-level pressure: 1027.5 mb]
Winds: from the N (350 degrees) at 5 MPH (4 knots; 2.1 m/s)
Visibility: 10 or more miles (16+ km)
Ceiling: at least 12,000 feet AGL
Clouds: few clouds at 5000 feet AGL
Weather: no significant weather observed at this time

METAR text: KPIT 181451Z 34007KT 10SM FEW050 FEW150 02/M09 A3029 RMK AO2 SLP275 T00221094 51015
Conditions at: KPIT (PITTSBURGH , PA, US) observed 1451 UTC 18 March 2019
Temperature: 2.2°C (36°F)
Dewpoint: -9.4°C (15°F) [RH = 42%]
Pressure (altimeter): 30.29 inches Hg (1025.8 mb)
[Sea-level pressure: 1027.5 mb]
Winds: from the NNW (340 degrees) at 8 MPH (7 knots; 3.6 m/s)
Visibility: 10 or more miles (16+ km)
Ceiling: at least 12,000 feet AGL
Clouds: few clouds at 5000 feet AGL
few clouds at 15000 feet AGL
Weather: no significant weather observed at this time

METAR text: KPIT 181351Z 35005KT 10SM FEW050 FEW150 01/M10 A3028 RMK AO2 SLP271 T00111100
Conditions at: KPIT (PITTSBURGH , PA, US) observed 1351 UTC 18 March 2019
Temperature: 1.1°C (34°F)
Dewpoint: -10.0°C (14°F) [RH = 43%]
Pressure (altimeter): 30.28 inches Hg (1025.5 mb)
[Sea-level pressure: 1027.1 mb]
Winds: from the N (350 degrees) at 6 MPH (5 knots; 2.6 m/s)
Visibility: 10 or more miles (16+ km)
Ceiling: at least 12,000 feet AGL
Clouds: few clouds at 5000 feet AGL
few clouds at 15000 feet AGL
Weather: no significant weather observed at this time

METAR text: KPIT 181251Z 33007KT 10SM SCT048 M01/M11 A3026 RMK AO2 SLP266 T10061106
Conditions at: KPIT (PITTSBURGH , PA, US) observed 1251 UTC 18 March 2019
Temperature: -0.6°C (31°F)
Dewpoint: -10.6°C (13°F) [RH = 47%]
Pressure (altimeter): 30.26 inches Hg (1024.8 mb)
[Sea-level pressure: 1026.6 mb]
Winds: from the NNW (330 degrees) at 8 MPH (7 knots; 3.6 m/s)
Visibility: 10 or more miles (16+ km)
Ceiling: at least 12,000 feet AGL
Clouds: scattered clouds at 4800 feet AGL
Weather: no significant weather observed at this time

METAR text: KPIT 181151Z 34005KT 10SM BKN048 M01/M11 A3024 RMK AO2 SLP260 60000 T10111106 10006 21022 53013
Conditions at: KPIT (PITTSBURGH , PA, US) observed 1151 UTC 18 March 2019
Temperature: -1.1°C (30°F)
Dewpoint: -10.6°C (13°F) [RH = 48%]
Pressure (altimeter): 30.24 inches Hg (1024.1 mb)
[Sea-level pressure: 1026.0 mb]
Winds: from the NNW (340 degrees) at 6 MPH (5 knots; 2.6 m/s)
Visibility: 10 or more miles (16+ km)
Ceiling: 4800 feet AGL
Clouds: broken clouds at 4800 feet AGL
Weather: no significant weather observed at this time

METAR text: KPIT 181051Z 32003KT 10SM BKN044 BKN060 M02/M11 A3023 RMK AO2 SNB01E19 SLP255 P0000 T10171111
Conditions at: KPIT (PITTSBURGH , PA, US) observed 1051 UTC 18 March 2019
Temperature: -1.7°C (29°F)
Dewpoint: -11.1°C (12°F) [RH = 49%]
Pressure (altimeter): 30.23 inches Hg (1023.8 mb)
[Sea-level pressure: 1025.5 mb]
Winds: from the NW (320 degrees) at 3 MPH (3 knots; 1.5 m/s)
Visibility: 10 or more miles (16+ km)
Ceiling: 4400 feet AGL
Clouds: broken clouds at 4400 feet AGL
broken clouds at 6000 feet AGL
Weather: no significant weather observed at this time

METAR text: KPIT 180951Z 35004KT 10SM BKN042 BKN060 M01/M11 A3021 RMK AO2 SLP249 T10111106
Conditions at: KPIT (PITTSBURGH , PA, US) observed 0951 UTC 18 March 2019
Temperature: -1.1°C (30°F)
Dewpoint: -10.6°C (13°F) [RH = 48%]
Pressure (altimeter): 30.21 inches Hg (1023.1 mb)
[Sea-level pressure: 1024.9 mb]
Winds: from the N (350 degrees) at 5 MPH (4 knots; 2.1 m/s)
Visibility: 10 or more miles (16+ km)
Ceiling: 4200 feet AGL
Clouds: broken clouds at 4200 feet AGL
broken clouds at 6000 feet AGL
Weather: no significant weather observed at this time

METAR text: KPIT 180851Z 02004KT 10SM SCT045 BKN060 M01/M11 A3020 RMK AO2 SLP246 T10111111 50001
Conditions at: KPIT (PITTSBURGH , PA, US) observed 0851 UTC 18 March 2019
Temperature: -1.1°C (30°F)
Dewpoint: -11.1°C (12°F) [RH = 47%]
Pressure (altimeter): 30.20 inches Hg (1022.8 mb)
[Sea-level pressure: 1024.6 mb]
Winds: from the NNE (20 degrees) at 5 MPH (4 knots; 2.1 m/s)
Visibility: 10 or more miles (16+ km)
Ceiling: 6000 feet AGL
Clouds: scattered clouds at 4500 feet AGL
broken clouds at 6000 feet AGL
Weather: no significant weather observed at this time

METAR text: KPIT 180751Z 02005KT 10SM FEW049 OVC065 00/M12 A3021 RMK AO2 SLP247 T00001117
Conditions at: KPIT (PITTSBURGH , PA, US) observed 0751 UTC 18 March 2019
Temperature: 0.0°C (32°F)
Dewpoint: -11.7°C (11°F) [RH = 41%]
Pressure (altimeter): 30.21 inches Hg (1023.1 mb)
[Sea-level pressure: 1024.7 mb]
Winds: from the NNE (20 degrees) at 6 MPH (5 knots; 2.6 m/s)
Visibility: 10 or more miles (16+ km)
Ceiling: 6500 feet AGL
Clouds: few clouds at 4900 feet AGL
overcast cloud deck at 6500 feet AGL
Weather: no significant weather observed at this time

METAR text: KPIT 180651Z 02005KT 10SM FEW050 OVC065 00/M11 A3021 RMK AO2 SLP248 T00001111
Conditions at: KPIT (PITTSBURGH , PA, US) observed 0651 UTC 18 March 2019
Temperature: 0.0°C (32°F)
Dewpoint: -11.1°C (12°F) [RH = 43%]
Pressure (altimeter): 30.21 inches Hg (1023.1 mb)
[Sea-level pressure: 1024.8 mb]
Winds: from the NNE (20 degrees) at 6 MPH (5 knots; 2.6 m/s)
Visibility: 10 or more miles (16+ km)
Ceiling: 6500 feet AGL
Clouds: few clouds at 5000 feet AGL
overcast cloud deck at 6500 feet AGL
Weather: no significant weather observed at this time

METAR text: KPIT 180551Z 01010KT 10SM OVC065 01/M11 A3020 RMK AO2 SLP245 T00061111 10039 20006 51007
Conditions at: KPIT (PITTSBURGH , PA, US) observed 0551 UTC 18 March 2019
Temperature: 0.6°C (33°F)
Dewpoint: -11.1°C (12°F) [RH = 41%]
Pressure (altimeter): 30.20 inches Hg (1022.8 mb)
[Sea-level pressure: 1024.5 mb]
Winds: from the N (10 degrees) at 12 MPH (10 knots; 5.1 m/s)
Visibility: 10 or more miles (16+ km)
Ceiling: 6500 feet AGL
Clouds: overcast cloud deck at 6500 feet AGL
Weather: no significant weather observed at this time

METAR text: KPIT 180451Z 36010KT 10SM FEW050 OVC065 01/M08 A3020 RMK AO2 SLP243 T00111078 400561039
Conditions at: KPIT (PITTSBURGH , PA, US) observed 0451 UTC 18 March 2019
Temperature: 1.1°C (34°F)
Dewpoint: -7.8°C (18°F) [RH = 51%]
Pressure (altimeter): 30.20 inches Hg (1022.8 mb)
[Sea-level pressure: 1024.3 mb]
Winds: from the N (360 degrees) at 12 MPH (10 knots; 5.1 m/s)
Visibility: 10 or more miles (16+ km)
Ceiling: 6500 feet AGL
Clouds: few clouds at 5000 feet AGL
overcast cloud deck at 6500 feet AGL
Weather: no significant weather observed at this time

METAR text: KPIT 180351Z 27003KT 10SM BKN065 OVC140 02/M09 A3018 RMK AO2 SLP239 T00221094
Conditions at: KPIT (PITTSBURGH , PA, US) observed 0351 UTC 18 March 2019
Temperature: 2.2°C (36°F)
Dewpoint: -9.4°C (15°F) [RH = 42%]
Pressure (altimeter): 30.18 inches Hg (1022.1 mb)
[Sea-level pressure: 1023.9 mb]
Winds: from the W (270 degrees) at 3 MPH (3 knots; 1.5 m/s)
Visibility: 10 or more miles (16+ km)
Ceiling: 6500 feet AGL
Clouds: broken clouds at 6500 feet AGL
overcast cloud deck at 14000 feet AGL
Weather: no significant weather observed at this time

METAR text: KPIT 180251Z 00000KT 10SM BKN060 OVC180 03/M09 A3018 RMK AO2 SLP238 T00281094 51003
Conditions at: KPIT (PITTSBURGH , PA, US) observed 0251 UTC 18 March 2019
Temperature: 2.8°C (37°F)
Dewpoint: -9.4°C (15°F) [RH = 40%]
Pressure (altimeter): 30.18 inches Hg (1022.1 mb)
[Sea-level pressure: 1023.8 mb]
Winds: calm
Visibility: 10 or more miles (16+ km)
Ceiling: 6000 feet AGL
Clouds: broken clouds at 6000 feet AGL
overcast cloud deck at 18000 feet AGL
Weather: no significant weather observed at this time

METAR text: KPIT 180151Z VRB03KT 10SM BKN070 OVC180 03/M10 A3018 RMK AO2 SLP239 T00281100
Conditions at: KPIT (PITTSBURGH , PA, US) observed 0151 UTC 18 March 2019
Temperature: 2.8°C (37°F)
Dewpoint: -10.0°C (14°F) [RH = 38%]
Pressure (altimeter): 30.18 inches Hg (1022.1 mb)
[Sea-level pressure: 1023.9 mb]
Winds: variable direction winds at 3 MPH (3 knots; 1.5 m/s)
Visibility: 10 or more miles (16+ km)
Ceiling: 7000 feet AGL
Clouds: broken clouds at 7000 feet AGL
overcast cloud deck at 18000 feet AGL
Weather: no significant weather observed at this time

METAR text: KPIT 180051Z 36005KT 10SM BKN075 OVC160 03/M10 A3018 RMK AO2 SLP238 T00331100
Conditions at: KPIT (PITTSBURGH , PA, US) observed 0051 UTC 18 March 2019
Temperature: 3.3°C (38°F)
Dewpoint: -10.0°C (14°F) [RH = 37%]
Pressure (altimeter): 30.18 inches Hg (1022.1 mb)
[Sea-level pressure: 1023.8 mb]
Winds: from the N (360 degrees) at 6 MPH (5 knots; 2.6 m/s)
Visibility: 10 or more miles (16+ km)
Ceiling: 7500 feet AGL
Clouds: broken clouds at 7500 feet AGL
overcast cloud deck at 16000 feet AGL
Weather: no significant weather observed at this time

METAR text: KPIT 172351Z 32006KT 10SM OVC080 04/M11 A3017 RMK AO2 SLP236 T00391111 10056 20028 53002
Conditions at: KPIT (PITTSBURGH , PA, US) observed 2351 UTC 17 March 2019
Temperature: 3.9°C (39°F)
Dewpoint: -11.1°C (12°F) [RH = 32%]
Pressure (altimeter): 30.17 inches Hg (1021.8 mb)
[Sea-level pressure: 1023.6 mb]
Winds: from the NW (320 degrees) at 7 MPH (6 knots; 3.1 m/s)
Visibility: 10 or more miles (16+ km)
Ceiling: 8000 feet AGL
Clouds: overcast cloud deck at 8000 feet AGL
Weather: no significant weather observed at this time

METAR text: KPIT 172251Z 27006KT 10SM FEW060 SCT090 BKN230 04/M12 A3016 RMK AO2 SLP232 T00441117
Conditions at: KPIT (PITTSBURGH , PA, US) observed 2251 UTC 17 March 2019
Temperature: 4.4°C (40°F)
Dewpoint: -11.7°C (11°F) [RH = 30%]
Pressure (altimeter): 30.16 inches Hg (1021.4 mb)
[Sea-level pressure: 1023.2 mb]
Winds: from the W (270 degrees) at 7 MPH (6 knots; 3.1 m/s)
Visibility: 10 or more miles (16+ km)
Ceiling: 23000 feet AGL
Clouds: few clouds at 6000 feet AGL
scattered clouds at 9000 feet AGL
broken clouds at 23000 feet AGL
Weather: no significant weather observed at this time

METAR text: KPIT 172151Z 26008KT 220V290 10SM FEW060 FEW160 BKN230 05/M12 A3015 RMK AO2 SLP230 T00501117
Conditions at: KPIT (PITTSBURGH , PA, US) observed 2151 UTC 17 March 2019
Temperature: 5.0°C (41°F)
Dewpoint: -11.7°C (11°F) [RH = 29%]
Pressure (altimeter): 30.15 inches Hg (1021.1 mb)
[Sea-level pressure: 1023.0 mb]
Winds: from the W (260 degrees) at 9 MPH (8 knots; 4.1 m/s)
Visibility: 10 or more miles (16+ km)
Ceiling: 23000 feet AGL
Clouds: few clouds at 6000 feet AGL
few clouds at 16000 feet AGL
broken clouds at 23000 feet AGL
Weather: no significant weather observed at this time

METAR text: KPIT 172051Z 33008KT 10SM FEW055 SCT160 BKN230 04/M11 A3016 RMK AO2 SLP234 T00441111 56022
Conditions at: KPIT (PITTSBURGH , PA, US) observed 2051 UTC 17 March 2019
Temperature: 4.4°C (40°F)
Dewpoint: -11.1°C (12°F) [RH = 31%]
Pressure (altimeter): 30.16 inches Hg (1021.4 mb)
[Sea-level pressure: 1023.4 mb]
Winds: from the NNW (330 degrees) at 9 MPH (8 knots; 4.1 m/s)
Visibility: 10 or more miles (16+ km)
Ceiling: 23000 feet AGL
Clouds: few clouds at 5500 feet AGL
scattered clouds at 16000 feet AGL
broken clouds at 23000 feet AGL
Weather: no significant weather observed at this time

METAR text: KPIT 171951Z VRB03KT 10SM FEW050 FEW250 04/M11 A3017 RMK AO2 SLP237 T00441111
Conditions at: KPIT (PITTSBURGH , PA, US) observed 1951 UTC 17 March 2019
Temperature: 4.4°C (40°F)
Dewpoint: -11.1°C (12°F) [RH = 31%]
Pressure (altimeter): 30.17 inches Hg (1021.8 mb)
[Sea-level pressure: 1023.7 mb]
Winds: variable direction winds at 3 MPH (3 knots; 1.5 m/s)
Visibility: 10 or more miles (16+ km)
Ceiling: at least 12,000 feet AGL
Clouds: few clouds at 5000 feet AGL
few clouds at 25000 feet AGL
Weather: no significant weather observed at this time

METAR text: KPIT 171851Z 33005KT 10SM FEW050 FEW250 04/M09 A3019 RMK AO2 SLP243 T00391094
Conditions at: KPIT (PITTSBURGH , PA, US) observed 1851 UTC 17 March 2019
Temperature: 3.9°C (39°F)
Dewpoint: -9.4°C (15°F) [RH = 37%]
Pressure (altimeter): 30.19 inches Hg (1022.4 mb)
[Sea-level pressure: 1024.3 mb]
Winds: from the NNW (330 degrees) at 6 MPH (5 knots; 2.6 m/s)
Visibility: 10 or more miles (16+ km)
Ceiling: at least 12,000 feet AGL
Clouds: few clouds at 5000 feet AGL
few clouds at 25000 feet AGL
Weather: no significant weather observed at this time

Forecast for: KPIT (PITTSBURGH , PA, US)
Text: KPIT 190530Z 1906/2012 VRB03KT P6SM SCT070
Forecast period: 0600 to 1700 UTC 19 March 2019
Forecast type: FROM: standard forecast or significant change
Winds: variable direction winds at 3 MPH (3 knots; 1.5 m/s)
Visibility: 6 or more miles 10+ km)
Ceiling: at least 12,000 feet AGL
Clouds: scattered clouds at 7000 feet AGL
Weather: no significant weather forecast for this period
Text: FM191700 27007KT P6SM BKN100
Forecast period: 1700 UTC 19 March 2019 to 0000 UTC 20 March 2019
Forecast type: FROM: standard forecast or significant change
Winds: from the W (270 degrees) at 8 MPH (7 knots; 3.6 m/s)
Visibility: 6 or more miles 10+ km)
Ceiling: 10000 feet AGL
Clouds: broken clouds at 10000 feet AGL
Weather: no significant weather forecast for this period
Text: FM200000 VRB03KT P6SM SCT250
Forecast period: 0000 to 1200 UTC 20 March 2019
Forecast type: FROM: standard forecast or significant change
Winds: variable direction winds at 3 MPH (3 knots; 1.5 m/s)
Visibility: 6 or more miles 10+ km)
Ceiling: at least 12,000 feet AGL
Clouds: scattered clouds at 25000 feet AGL
Weather: no significant weather forecast for this period